Huvudsida
METAR-TAF:

METAR-TAF

Flygplatser :

Trollhättan-Vänersborgs flygplats

Trollhättan-Vänersborg, Sverige

latitud: 58-19N, longitud: 012-21E, höjd: 41 m

Aktuellt väderrapport

Denna rapport gjordes för 21 minuter sedan, klockan 20:20 UTC
Vind 12 kt från sydväst
Temperatur 5°C
Fuktighet 93%
Tryck 1009 hPa
Sikt: 2700 m
duggregn

METAR: ESGT 262020Z AUTO 22012KT 2700 DZ OVC004/// 05/04 Q1009

Tid: 21:41 (20:41 UTC)

Väderprognos

Denna rapport gjordes för 3 timmar och 11 minuter sedan, klockan 17:30 UTC
Prognos gäller från 26 kl. 18 UTC till 26 kl. 21 UTC
Vind 10 kt från sydväst
Sikt: 8000 m
Mulet på en höjd av 800 ft
Temporärt
från 26 kl. 18 UTC till 26 kl. 21 UTC
Sikt: 3000 m
Mulet på en höjd av 400 ft
lätt duggregn, fuktdis

TAF: ESGT 261730Z 2618/2621 22010KT 8000 OVC008 TEMPO 2618/2621 3000 -DZ BR OVC004

Aktuella väderrapporter och prognoser från 4000 flygplatser (METAR- och TAF-rapporter).

De tillgängliga stationerna syns som gula och röda prickar på kartan.

För musen över prickarna för att se namnen på stationerna.

Klicka sedan för att få väderrapporter och prognoser.

För att ändra kartan: Klicka på de gröna knapparna med ett svart kors på för att zooma in; den gröna knappen med ett streck på för att zooma ut; eller på de gröna pilarna för angränsande kartor.


METAR-TAF: